createdAt,value
2023-05-13T00:01:32.208Z,2.1
2023-05-13T00:03:35.356Z,1.2
2023-05-13T00:07:41.327Z,1.8
2023-05-13T00:09:44.318Z,1.4
2023-05-13T00:11:47.388Z,1.6
2023-05-13T00:13:50.403Z,1.6
2023-05-13T00:15:56.562Z,1.8
2023-05-13T00:20:02.660Z,3.1
2023-05-13T00:23:08.749Z,2.6
2023-05-13T00:37:33.146Z,2.3
2023-05-13T00:39:36.210Z,2.9
2023-05-13T00:41:39.253Z,2.7
2023-05-13T00:58:09.795Z,2.2
2023-05-13T01:12:34.156Z,2.8
2023-05-13T01:16:40.246Z,3.1
2023-05-13T01:17:43.341Z,2.9
2023-05-13T01:19:46.358Z,3
2023-05-13T01:21:49.415Z,2.9
2023-05-13T01:25:58.628Z,2.7
2023-05-13T01:28:01.675Z,4.5
2023-05-13T01:30:04.685Z,2.5
2023-05-13T01:34:10.766Z,2.2
2023-05-13T01:36:13.793Z,1.5
2023-05-13T01:44:30.646Z,2.4
2023-05-13T01:46:33.755Z,2.5
2023-05-13T01:48:36.711Z,6.3
2023-05-13T01:50:39.731Z,2.4
2023-05-13T01:58:55.032Z,3
2023-05-13T02:05:04.172Z,2.5
2023-05-13T02:09:13.389Z,3.1
2023-05-13T02:11:16.428Z,3
2023-05-13T02:13:19.470Z,4.2
2023-05-13T02:14:22.533Z,3.6
2023-05-13T02:18:28.718Z,2.4
2023-05-13T02:22:37.860Z,3.1
2023-05-13T02:24:40.909Z,2
2023-05-13T02:28:47.004Z,2.6
2023-05-13T02:30:50.035Z,2.3
2023-05-13T02:32:53.080Z,4.8
2023-05-13T02:34:56.127Z,2.7
2023-05-13T02:37:02.251Z,2.2
2023-05-13T02:39:05.329Z,3.7
2023-05-13T02:41:08.475Z,2.5
2023-05-13T02:43:11.483Z,2.8
2023-05-13T02:45:14.551Z,2.8
2023-05-13T02:47:17.591Z,3.5
2023-05-13T02:49:20.619Z,2.6
2023-05-13T02:51:26.756Z,3.4
2023-05-13T02:53:29.814Z,3.1
2023-05-13T02:55:32.821Z,3.2
2023-05-13T02:57:35.897Z,4.4
2023-05-13T02:59:38.935Z,2.5
2023-05-13T03:01:42.023Z,4
2023-05-13T03:03:45.137Z,3.7
2023-05-13T03:05:51.357Z,3.2
2023-05-13T03:07:54.403Z,4.1
2023-05-13T03:09:57.472Z,3.1
2023-05-13T03:12:27.052Z,4.5
2023-05-13T03:14:30.114Z,3.7
2023-05-13T03:16:33.290Z,3.6
2023-05-13T03:18:39.644Z,4.8
2023-05-13T03:20:42.736Z,4.3
2023-05-13T03:22:45.835Z,3.2
2023-05-13T03:26:52.157Z,4
2023-05-13T03:28:55.256Z,4.5
2023-05-13T03:35:07.889Z,3.4
2023-05-13T03:41:17.379Z,4.5
2023-05-13T03:43:20.473Z,5
2023-05-13T03:45:23.575Z,5.1
2023-05-13T03:47:29.968Z,4.8
2023-05-13T03:49:33.113Z,4.5
2023-05-13T03:51:36.231Z,6
2023-05-13T03:55:42.496Z,5.6
2023-05-13T03:57:45.646Z,5.6
2023-05-13T03:59:48.800Z,5.4
2023-05-13T04:01:55.171Z,5.2
2023-05-13T04:03:58.278Z,5.3
2023-05-13T04:06:01.396Z,6.5
2023-05-13T04:07:04.580Z,5.4
2023-05-13T04:11:10.852Z,5.3
2023-05-13T04:13:13.976Z,6.2
2023-05-13T04:15:20.313Z,6.1
2023-05-13T04:17:23.464Z,6.4
2023-05-13T04:19:26.607Z,5.4
2023-05-13T04:21:29.721Z,6.9
2023-05-13T04:23:32.854Z,5.5
2023-05-13T04:27:39.099Z,6.6
2023-05-13T04:29:45.422Z,7.1
2023-05-13T04:31:48.606Z,6.8
2023-05-13T04:33:51.669Z,6.9
2023-05-13T04:35:54.811Z,6.1
2023-05-13T04:37:57.947Z,6.2
2023-05-13T04:40:01.040Z,4.7
2023-05-13T04:42:04.149Z,5.5
2023-05-13T04:44:10.510Z,5.7
2023-05-13T04:46:13.706Z,6.6
2023-05-13T04:48:16.774Z,7.1
2023-05-13T04:52:23.052Z,7.1
2023-05-13T04:56:29.330Z,6
2023-05-13T04:58:35.659Z,5.2
2023-05-13T05:00:38.761Z,6.1
2023-05-13T05:02:41.965Z,7.5
2023-05-13T05:03:45.117Z,5.5
2023-05-13T05:07:51.341Z,6.1
2023-05-13T05:40:51.168Z,7.8
2023-05-13T05:44:57.412Z,6.4
2023-05-13T05:53:09.672Z,5.7
2023-05-13T05:55:15.827Z,7.9
2023-05-13T05:57:18.856Z,6.9
2023-05-13T05:59:21.920Z,5.6
2023-05-13T06:00:24.993Z,8.8
2023-05-13T06:02:28.154Z,6.8
2023-05-13T06:04:31.104Z,6.6
2023-05-13T06:06:34.157Z,6.1
2023-05-13T06:10:43.326Z,5.1
2023-05-13T06:14:49.366Z,5
2023-05-13T06:18:55.455Z,5
2023-05-13T06:20:58.489Z,6.5
2023-05-13T06:23:04.608Z,4.1
2023-05-13T06:25:07.666Z,5.4
2023-05-13T06:31:16.822Z,4.2
2023-05-13T06:33:19.844Z,3.5
2023-05-13T06:35:22.817Z,2.9
2023-05-13T06:37:28.956Z,3.6
2023-05-13T06:39:31.975Z,5.2
2023-05-13T06:41:35.000Z,4.8
2023-05-13T06:47:44.133Z,5.1
2023-05-13T06:53:56.213Z,3.8
2023-05-13T07:00:26.183Z,4.2
2023-05-13T07:02:29.202Z,3.4
2023-05-13T07:08:41.283Z,2.6
2023-05-13T07:10:44.292Z,4.1
2023-05-13T07:14:50.289Z,4.6
2023-05-13T07:16:53.333Z,3.5
2023-05-13T07:18:59.451Z,4.5
2023-05-13T07:21:02.415Z,2.8
2023-05-13T07:23:05.361Z,3.7
2023-05-13T07:25:08.389Z,2.9
2023-05-13T07:27:11.372Z,3.3
2023-05-13T07:29:14.383Z,3.6
2023-05-13T07:31:17.498Z,2.2
2023-05-13T07:33:23.476Z,3.2
2023-05-13T07:35:26.432Z,2.9
2023-05-13T07:37:29.432Z,3.1
2023-05-13T07:39:33.996Z,2.7
2023-05-13T07:41:36.954Z,3.5
2023-05-13T07:43:39.904Z,3.7
2023-05-13T07:47:49.020Z,4.3
2023-05-13T07:49:51.934Z,3.1
2023-05-13T07:51:54.899Z,4.1
2023-05-13T07:52:57.966Z,2.8
2023-05-13T07:59:06.826Z,4
2023-05-13T08:01:12.947Z,5.1
2023-05-13T08:03:16.056Z,4.6
2023-05-13T08:05:18.860Z,3.7
2023-05-13T08:11:27.672Z,3.8
2023-05-13T08:13:30.640Z,3.3
2023-05-13T08:15:36.715Z,3
2023-05-13T08:17:39.655Z,3.1
2023-05-13T08:19:42.611Z,2.7
2023-05-13T08:21:45.546Z,3.4
2023-05-13T08:23:48.463Z,3.3
2023-05-13T08:25:51.417Z,2.8
2023-05-13T08:27:54.331Z,2.4
2023-05-13T08:30:00.371Z,2.2
2023-05-13T08:32:03.378Z,2.2
2023-05-13T08:36:09.110Z,2.7
2023-05-13T08:38:12.026Z,3.5
2023-05-13T08:40:14.929Z,3.1
2023-05-13T08:42:17.857Z,5.3
2023-05-13T08:44:23.883Z,3.2
2023-05-13T08:46:26.879Z,3.3
2023-05-13T08:48:29.715Z,2.6
2023-05-13T08:49:32.724Z,2.8
2023-05-13T08:51:35.602Z,3.5
2023-05-13T08:53:38.528Z,3.3
2023-05-13T08:55:41.467Z,10.7
2023-05-13T08:57:47.403Z,2.4
2023-05-13T09:10:04.727Z,2.9
2023-05-13T09:12:10.738Z,3.2
2023-05-13T09:14:13.587Z,3.1
2023-05-13T09:16:16.468Z,2.1
2023-05-13T09:18:19.640Z,2.1
2023-05-13T09:20:22.194Z,2.7
2023-05-13T09:22:25.195Z,2.5
2023-05-13T09:26:34.039Z,2.3
2023-05-13T09:28:36.883Z,2.7
2023-05-13T09:30:39.714Z,2.2
2023-05-13T09:32:42.617Z,1.3
2023-05-13T09:34:45.426Z,1
2023-05-13T09:36:49.689Z,1.9
2023-05-13T09:38:51.078Z,1.3
2023-05-13T09:40:57.090Z,2.6
2023-05-13T09:42:59.813Z,2.2
2023-05-13T09:45:02.654Z,2.4
2023-05-13T09:46:05.609Z,1.7
2023-05-13T09:48:08.341Z,2.4
2023-05-13T09:50:11.133Z,3.4
2023-05-13T09:52:13.949Z,2.5
2023-05-13T09:56:22.727Z,2.6
2023-05-13T10:00:32.582Z,2
2023-05-13T10:02:31.162Z,1.8
2023-05-13T10:04:33.951Z,3.2
2023-05-13T10:08:42.762Z,2.1
2023-05-13T10:10:45.667Z,2
2023-05-13T10:12:48.345Z,1.1
2023-05-13T10:16:54.018Z,2
2023-05-13T10:18:56.824Z,2.6
2023-05-13T10:20:59.607Z,2.7
2023-05-13T10:23:05.538Z,2.4
2023-05-13T10:25:08.319Z,1.3
2023-05-13T10:27:11.161Z,1.9
2023-05-13T10:31:16.788Z,0.9
2023-05-13T10:35:22.393Z,1
2023-05-13T10:37:28.343Z,2.5
2023-05-13T10:39:31.183Z,0.9
2023-05-13T10:46:05.772Z,0.9
2023-05-13T10:48:08.672Z,1.6
2023-05-13T10:50:14.520Z,1.3
2023-05-13T10:56:22.973Z,1.1
2023-05-13T10:58:25.822Z,2
2023-05-13T11:00:28.652Z,1.3
2023-05-13T11:02:31.544Z,0.5
2023-05-13T11:04:37.458Z,0.7
2023-05-13T11:08:43.084Z,0.6
2023-05-13T11:10:45.912Z,1.4
2023-05-13T11:12:48.718Z,1.5
2023-05-13T11:14:51.505Z,0.9
2023-05-13T11:16:54.196Z,0.6
2023-05-13T11:21:05.071Z,1.2
2023-05-13T11:23:05.538Z,0.4
2023-05-13T11:29:13.591Z,0.6
2023-05-13T11:31:16.283Z,0.9
2023-05-13T11:33:21.963Z,1.3
2023-05-13T11:35:24.616Z,0.6
2023-05-13T11:37:27.263Z,0.3
2023-05-13T11:38:30.122Z,1.7
2023-05-13T11:40:32.733Z,1.2
2023-05-13T11:42:35.356Z,0.4
2023-05-13T11:44:38.004Z,0.1
2023-05-13T11:46:43.638Z,0.7
2023-05-13T11:48:46.271Z,1
2023-05-13T11:50:48.945Z,0.7
2023-05-13T11:52:51.452Z,0.8
2023-05-13T11:54:54.144Z,0.5
2023-05-13T11:56:56.626Z,1
2023-05-13T11:58:59.200Z,0.7
2023-05-13T12:01:04.856Z,0.4
2023-05-13T12:03:07.436Z,0.7
2023-05-13T12:05:10.057Z,1
2023-05-13T12:07:12.514Z,0.6
2023-05-13T12:09:15.131Z,0.5
2023-05-13T12:11:17.642Z,0.4
2023-05-13T12:13:20.176Z,0.4
2023-05-13T12:15:26.105Z,0.6
2023-05-13T12:19:30.902Z,0.8
2023-05-13T12:21:33.450Z,0.8
2023-05-13T12:23:36.002Z,1
2023-05-13T12:25:38.577Z,0.7
2023-05-13T12:27:41.088Z,1.1
2023-05-13T12:29:46.705Z,0.9
2023-05-13T12:33:51.743Z,0.9
2023-05-13T12:34:54.553Z,0.9
2023-05-13T12:36:57.140Z,1.1
2023-05-13T12:39:00.636Z,0.8
2023-05-13T12:41:02.122Z,0.6
2023-05-13T12:45:10.191Z,1.1
2023-05-13T12:49:15.202Z,1.1
2023-05-13T13:01:33.368Z,0.5
2023-05-13T13:07:40.605Z,0.9
2023-05-13T13:09:43.081Z,0.6
2023-05-13T13:11:48.633Z,0.7
2023-05-13T13:13:51.079Z,0.7
2023-05-13T13:15:53.573Z,0.7
2023-05-13T13:17:56.123Z,0.8
2023-05-13T13:19:58.498Z,1.1
2023-05-13T13:22:00.993Z,0.7
2023-05-13T13:24:03.476Z,1.3
2023-05-13T13:26:08.994Z,1.6
2023-05-13T13:28:11.472Z,0.6
2023-05-13T13:30:13.973Z,1.7
2023-05-13T13:31:16.752Z,1.3
2023-05-13T13:33:20.787Z,2.7
2023-05-13T13:35:23.372Z,0.9
2023-05-13T13:43:36.166Z,1.7
2023-05-13T13:47:41.166Z,0.5
2023-05-13T13:57:56.518Z,0.9
2023-05-13T13:59:59.015Z,1.7
2023-05-13T14:04:04.036Z,0.5
2023-05-13T14:06:06.480Z,0.6
2023-05-13T14:08:12.032Z,0.6
2023-05-13T14:10:14.511Z,4.1
2023-05-13T14:12:17.009Z,2.5
2023-05-13T14:14:19.460Z,0.3
2023-05-13T14:16:22.029Z,0.6
2023-05-13T14:20:26.864Z,0.8
2023-05-13T14:24:34.872Z,2.3
2023-05-13T14:26:37.335Z,0.4
2023-05-13T14:29:05.810Z,1.2
2023-05-13T14:31:08.251Z,1.1
2023-05-13T14:33:10.737Z,0.6
2023-05-13T14:35:16.227Z,0.6
2023-05-13T14:39:21.153Z,1
2023-05-13T14:41:23.610Z,1
2023-05-13T14:43:26.036Z,0.5
2023-05-13T14:45:28.521Z,0.6
2023-05-13T14:49:36.499Z,4.2
2023-05-13T14:51:38.961Z,2.1
2023-05-13T14:57:46.317Z,0.9
2023-05-13T15:03:56.749Z,2
2023-05-13T15:05:59.228Z,3.5
2023-05-13T15:08:01.702Z,1
2023-05-13T15:10:04.129Z,1.3
2023-05-13T15:12:06.590Z,1.1
2023-05-13T15:16:11.568Z,1.5
2023-05-13T15:20:19.536Z,1.3
2023-05-13T15:22:21.968Z,0.3
2023-05-13T15:23:24.753Z,5.6
2023-05-13T15:25:27.229Z,2.5
2023-05-13T15:27:29.699Z,2.8
2023-05-13T15:29:32.167Z,1.1
2023-05-13T15:31:37.708Z,2
2023-05-13T15:33:40.207Z,1
2023-05-13T15:37:45.141Z,1.5
2023-05-13T15:43:52.591Z,1.7
2023-05-13T15:48:00.677Z,1.2
2023-05-13T15:54:08.185Z,1.4
2023-05-13T15:58:13.193Z,1.8
2023-05-13T16:00:18.813Z,3.5
2023-05-13T16:02:21.301Z,3
2023-05-13T16:06:26.368Z,8.9
2023-05-13T16:08:28.894Z,2.3
2023-05-13T16:10:31.409Z,1.4
2023-05-13T16:14:39.570Z,2.6
2023-05-13T16:18:44.734Z,1.8
2023-05-13T16:19:47.481Z,1.2
2023-05-13T16:21:50.068Z,0.4
2023-05-13T16:23:52.629Z,1.8
2023-05-13T16:25:55.256Z,1.9
2023-05-13T16:28:01.118Z,1.2
2023-05-13T16:30:03.857Z,1.4
2023-05-13T16:34:09.381Z,3
2023-05-13T16:38:15.010Z,1.2
2023-05-13T16:44:26.664Z,0.7
2023-05-13T16:46:29.562Z,1
2023-05-13T16:48:32.415Z,1.1
2023-05-13T16:50:35.279Z,2
2023-05-13T16:52:38.195Z,1.9
2023-05-13T16:54:41.060Z,2.5
2023-05-13T16:56:47.104Z,1.8
2023-05-13T16:58:50.034Z,4.1
2023-05-13T17:00:52.968Z,3.5
2023-05-13T17:02:55.867Z,1.3
2023-05-13T17:04:58.726Z,3.5
2023-05-13T17:07:01.688Z,1.4
2023-05-13T17:09:04.596Z,1.7
2023-05-13T17:11:10.674Z,20.2
2023-05-13T17:15:16.574Z,2.2
2023-05-13T17:16:19.618Z,2
2023-05-13T17:20:25.466Z,1.6
2023-05-13T17:22:28.438Z,1.4
2023-05-13T17:32:46.327Z,0.9
2023-05-13T17:34:49.235Z,2.4
2023-05-13T17:36:52.196Z,6.8
2023-05-13T17:38:58.291Z,2
2023-05-13T17:41:01.238Z,1.1
2023-05-13T17:43:04.183Z,2.4
2023-05-13T17:47:10.124Z,4.4
2023-05-13T17:51:16.057Z,4.6
2023-05-13T17:53:22.156Z,4.7
2023-05-13T17:55:25.141Z,4
2023-05-13T18:01:34.148Z,1.9
2023-05-13T18:03:37.021Z,1.4
2023-05-13T18:05:40.002Z,2.5
2023-05-13T18:07:46.094Z,2
2023-05-13T18:09:53.147Z,4.7
2023-05-13T18:14:15.223Z,1.3
2023-05-13T18:22:30.250Z,0.5
2023-05-13T18:24:33.252Z,1.7
2023-05-13T18:28:39.240Z,3.7
2023-05-13T18:30:42.211Z,3.8
2023-05-13T18:32:45.253Z,5.4
2023-05-13T18:36:54.332Z,2.5
2023-05-13T18:38:57.296Z,2.5
2023-05-13T18:41:00.322Z,1.3
2023-05-13T18:43:03.290Z,3.9
2023-05-13T18:45:06.294Z,1.8
2023-05-13T18:47:09.280Z,3
2023-05-13T18:51:18.380Z,20.1
2023-05-13T18:55:24.383Z,2.5
2023-05-13T18:57:27.400Z,4.5
2023-05-13T18:59:30.410Z,2.5
2023-05-13T19:01:33.531Z,2.3
2023-05-13T19:07:45.576Z,1.7
2023-05-13T19:08:48.593Z,1.7
2023-05-13T19:10:51.625Z,3.1
2023-05-13T19:12:54.660Z,2.3
2023-05-13T19:14:57.653Z,3.4
2023-05-13T19:17:03.838Z,2.6
2023-05-13T19:19:06.912Z,2.3
2023-05-13T19:23:12.848Z,1.2
2023-05-13T19:25:15.869Z,1.9
2023-05-13T19:27:20.444Z,3
2023-05-13T19:29:23.401Z,1.9
2023-05-13T19:31:29.601Z,5.1
2023-05-13T19:33:32.575Z,6.4
2023-05-13T19:35:35.588Z,3.3
2023-05-13T19:41:44.658Z,2.3
2023-05-13T19:43:47.694Z,2.2
2023-05-13T20:05:27.176Z,2.8
2023-05-13T20:07:30.221Z,2.5
2023-05-13T20:09:33.252Z,2.6
2023-05-13T20:15:45.387Z,5.8
2023-05-13T20:17:48.522Z,2.6
2023-05-13T20:19:51.434Z,6.8
2023-05-13T20:23:57.471Z,2.2
2023-05-13T20:26:00.488Z,3.3
2023-05-13T20:28:06.588Z,2
2023-05-13T20:36:18.666Z,4.2
2023-05-13T20:38:21.685Z,3.3
2023-05-13T20:40:25.026Z,3.6
2023-05-13T20:42:30.841Z,2.9
2023-05-13T20:44:33.875Z,2.8
2023-05-13T20:46:36.942Z,8
2023-05-13T20:48:39.924Z,3.7
2023-05-13T20:50:42.954Z,3.2
2023-05-13T20:52:45.982Z,3.9
2023-05-13T20:54:49.012Z,7.9
2023-05-13T20:56:55.153Z,7.7
2023-05-13T20:58:58.188Z,4.8
2023-05-13T21:01:01.254Z,5.7
2023-05-13T21:02:04.275Z,5.1
2023-05-13T21:06:10.354Z,3.8
2023-05-13T21:10:19.499Z,6.7
2023-05-13T21:12:22.543Z,3.5
2023-05-13T21:16:28.712Z,3.4
2023-05-13T21:18:31.641Z,4.1
2023-05-13T21:39:08.222Z,2.4
2023-05-13T21:41:11.253Z,7
2023-05-13T21:43:14.287Z,6.1
2023-05-13T21:45:17.324Z,4.9
2023-05-13T21:47:20.365Z,8
2023-05-13T21:57:38.683Z,4.4
2023-05-13T22:00:08.082Z,7.5
2023-05-13T22:02:11.145Z,4.7
2023-05-13T22:06:20.300Z,6
2023-05-13T22:08:23.357Z,6.4
2023-05-13T22:14:32.504Z,5.9
2023-05-13T22:16:35.659Z,6.6
2023-05-13T22:20:44.759Z,6.6
2023-05-13T22:22:47.825Z,6.8
2023-05-13T22:24:50.923Z,6.9
2023-05-13T22:45:24.538Z,5.2
2023-05-13T22:49:33.761Z,7.3
2023-05-13T22:54:42.922Z,8.4
2023-05-13T23:00:52.137Z,5.5
2023-05-13T23:02:58.322Z,5.9
2023-05-13T23:07:04.420Z,4
2023-05-13T23:09:07.498Z,4.3
2023-05-13T23:11:10.524Z,4.5
2023-05-13T23:13:13.593Z,5.9
2023-05-13T23:15:16.668Z,7
2023-05-13T23:17:22.814Z,6.6
2023-05-13T23:19:25.865Z,7.9
2023-05-13T23:21:28.940Z,6.9
2023-05-13T23:27:38.130Z,7.5
2023-05-13T23:29:41.184Z,6.7
2023-05-13T23:31:47.384Z,7.3
2023-05-13T23:33:50.411Z,7.8
2023-05-13T23:35:53.497Z,10.5
2023-05-13T23:37:56.564Z,11.9
2023-05-13T23:39:59.590Z,10.2
2023-05-13T23:44:05.740Z,9.6
2023-05-13T23:46:11.972Z,10.6
2023-05-13T23:50:18.091Z,9.5
2023-05-13T23:51:21.167Z,11.2
2023-05-13T23:53:24.204Z,10.3
2023-05-13T23:55:27.308Z,10.1
2023-05-13T23:57:30.358Z,9.6
2023-05-13T23:59:36.521Z,11.7
